Time;durP1;ratioP1;P1;durP2;ratioP2;P2;SDS_P1;SDS_P2;PMS_P1;PMS_P2;Temp;Humidity;BMP_temperature;BMP_pressure;BME280_temperature;BME280_humidity;BME280_pressure;Samples;Min_cycle;Max_cycle;Signal;HPM_P1;HPM_P2
2023/02/25 00:01:37;;;;;;;2.73;1.10;;;;;;;3.91;100.00;99819.94;4989686;28;20321;-70
2023/02/25 00:04:03;;;;;;;2.70;1.10;;;;;;;3.90;100.00;99821.59;4987705;28;20195;-68
2023/02/25 00:06:28;;;;;;;1.67;1.00;;;;;;;3.88;100.00;99827.44;4989699;28;20645;-69
2023/02/25 00:08:54;;;;;;;4.37;1.13;;;;;;;3.85;100.00;99829.84;4992337;28;20198;-69
2023/02/25 00:11:20;;;;;;;4.03;0.90;;;;;;;3.82;100.00;99825.56;4987270;28;20235;-69
2023/02/25 00:13:46;;;;;;;4.07;1.27;;;;;;;3.83;100.00;99818.84;4994183;28;20209;-66
2023/02/25 00:16:13;;;;;;;4.40;1.43;;;;;;;3.82;100.00;99823.03;4987091;28;20200;-69
2023/02/25 00:18:43;;;;;;;3.97;1.30;;;;;;;3.80;100.00;99821.28;5011503;28;20199;-70
2023/02/25 00:21:08;;;;;;;4.87;0.97;;;;;;;3.78;100.00;99833.88;4987110;28;20219;-70
2023/02/25 00:23:34;;;;;;;3.10;1.23;;;;;;;3.77;100.00;99836.41;4993043;28;20606;-68
2023/02/25 00:26:04;;;;;;;4.03;1.00;;;;;;;3.79;100.00;99840.69;4986917;28;20196;-68
2023/02/25 00:28:29;;;;;;;2.30;0.97;;;;;;;3.82;100.00;99847.50;4991555;28;20200;-69
2023/02/25 00:30:55;;;;;;;5.07;1.07;;;;;;;3.81;100.00;99841.56;4987719;28;20218;-70
2023/02/25 00:33:20;;;;;;;3.73;1.00;;;;;;;3.79;100.00;99842.34;4988578;28;20200;-68
2023/02/25 00:35:47;;;;;;;2.37;1.03;;;;;;;3.78;100.00;99850.75;4989936;28;20196;-70
2023/02/25 00:38:12;;;;;;;3.23;1.20;;;;;;;3.79;100.00;99849.94;4983555;28;20545;-70
2023/02/25 00:40:39;;;;;;;4.60;1.10;;;;;;;3.81;100.00;99854.22;4990825;28;20191;-70
2023/02/25 00:43:05;;;;;;;2.67;1.10;;;;;;;3.83;100.00;99859.34;4990144;28;20262;-70
2023/02/25 00:45:32;;;;;;;3.30;1.07;;;;;;;3.84;100.00;99867.00;4989526;28;20661;-69
2023/02/25 00:47:58;;;;;;;9.23;1.10;;;;;;;3.85;100.00;99866.16;4989164;28;20188;-69
2023/02/25 00:50:23;;;;;;;4.43;1.57;;;;;;;3.85;100.00;99868.69;4989491;28;20210;-69
2023/02/25 00:52:49;;;;;;;1.83;0.87;;;;;;;3.87;100.00;99868.75;4994252;28;20241;-67
2023/02/25 00:55:15;;;;;;;3.57;1.20;;;;;;;3.84;100.00;99868.66;4990564;28;20196;-70
2023/02/25 00:57:42;;;;;;;3.37;0.90;;;;;;;3.82;100.00;99870.28;4995008;28;20583;-70
2023/02/25 01:00:09;;;;;;;4.83;1.27;;;;;;;3.87;100.00;99864.53;4986973;28;20191;-68
2023/02/25 01:02:36;;;;;;;4.93;1.27;;;;;;;3.87;100.00;99869.59;4987969;28;20251;-69
2023/02/25 01:05:03;;;;;;;4.93;1.00;;;;;;;3.85;100.00;99881.38;4973227;28;20199;-70
2023/02/25 01:07:28;;;;;;;3.30;1.20;;;;;;;3.91;100.00;99875.63;4988945;28;20202;-70
2023/02/25 01:09:54;;;;;;;2.77;1.07;;;;;;;3.90;100.00;99877.28;4991010;28;20286;-68
2023/02/25 01:12:20;;;;;;;3.07;1.10;;;;;;;3.93;100.00;99885.00;4984779;28;20230;-69
2023/02/25 01:14:46;;;;;;;3.93;1.10;;;;;;;3.94;100.00;99878.22;4992054;28;20207;-67
2023/02/25 01:17:11;;;;;;;4.23;1.20;;;;;;;3.94;100.00;99880.75;4985780;28;20191;-70
2023/02/25 01:19:37;;;;;;;4.33;1.20;;;;;;;3.94;100.00;99889.22;4993697;28;22228;-70
2023/02/25 01:22:02;;;;;;;5.37;1.03;;;;;;;3.93;100.00;99886.66;4986391;28;20731;-69
2023/02/25 01:24:32;;;;;;;4.17;1.00;;;;;;;3.94;100.00;99885.81;4992063;28;20224;-68
2023/02/25 01:26:59;;;;;;;4.40;1.03;;;;;;;3.94;100.00;99906.09;4986290;28;20650;-69
2023/02/25 01:29:27;;;;;;;1.87;0.90;;;;;;;3.95;100.00;99902.75;4991368;28;20195;-69
2023/02/25 01:31:55;;;;;;;3.07;1.00;;;;;;;3.95;100.00;99902.75;4992905;28;20214;-69
2023/02/25 01:34:22;;;;;;;3.00;1.03;;;;;;;3.94;100.00;99901.91;4997985;28;20684;-69
2023/02/25 01:36:48;;;;;;;2.00;1.10;;;;;;;3.94;100.00;99903.56;4992112;28;20196;-70
2023/02/25 01:39:15;;;;;;;2.57;0.90;;;;;;;3.92;100.00;99915.31;5012601;28;20537;-69
2023/02/25 01:41:41;;;;;;;3.60;0.90;;;;;;;3.93;100.00;99919.56;4993997;28;20270;-68
2023/02/25 01:44:07;;;;;;;2.40;1.53;;;;;;;3.91;100.00;99919.50;4991762;28;20596;-69
2023/02/25 01:46:34;;;;;;;2.67;1.50;;;;;;;3.89;100.00;99927.88;4992850;28;20191;-68
2023/02/25 01:49:01;;;;;;;3.97;1.30;;;;;;;3.91;100.00;99936.41;4990200;28;20196;-69
2023/02/25 01:51:27;;;;;;;1.83;1.00;;;;;;;3.90;100.00;99937.19;4993455;28;20326;-69
2023/02/25 01:53:55;;;;;;;2.93;1.33;;;;;;;3.90;100.00;99940.59;4997468;28;20289;-68
2023/02/25 01:56:23;;;;;;;2.83;1.10;;;;;;;3.89;100.00;99943.94;4993031;28;20207;-69
2023/02/25 01:58:52;;;;;;;2.03;0.90;;;;;;;3.90;100.00;99945.66;4990770;28;20198;-69
2023/02/25 02:01:20;;;;;;;2.37;0.90;;;;;;;3.88;100.00;99951.47;4985930;28;20215;-68
2023/02/25 02:03:47;;;;;;;1.77;1.10;;;;;;;3.88;100.00;99954.88;4992959;28;20664;-66
2023/02/25 02:06:40;;;;;;;2.27;0.97;;;;;;;3.88;100.00;99954.88;4992549;28;20208;-70
2023/02/25 02:09:12;;;;;;;2.13;1.17;;;;;;;3.89;100.00;99960.78;4987419;28;20241;-69
2023/02/25 02:11:39;;;;;;;2.60;0.90;;;;;;;3.88;100.00;99964.13;4994454;28;20203;-68
2023/02/25 02:14:06;;;;;;;1.70;0.80;;;;;;;3.88;100.00;99967.53;4988543;28;20228;-69
2023/02/25 02:16:45;;;;;;;1.73;0.90;;;;;;;3.89;100.00;99974.31;4992968;28;20197;-68
2023/02/25 02:19:26;;;;;;;1.13;0.70;;;;;;;3.87;100.00;99975.09;4993653;28;20195;-68
2023/02/25 02:22:29;;;;;;;4.77;0.97;;;;;;;3.88;100.00;99981.88;4988340;28;20302;-69
2023/02/25 02:25:04;;;;;;;3.00;0.90;;;;;;;3.86;100.00;99986.03;4994265;28;20205;-69
2023/02/25 02:27:51;;;;;;;3.93;1.23;;;;;;;3.83;100.00;99991.84;4991904;28;20195;-68
2023/02/25 02:30:53;;;;;;;1.07;0.77;;;;;;;3.81;100.00;99993.47;4992461;28;20226;-69
2023/02/25 02:33:35;;;;;;;1.57;0.90;;;;;;;3.79;100.00;99997.63;4986450;28;20220;-69
2023/02/25 02:36:03;;;;;;;1.63;1.10;;;;;;;3.79;100.00;100000.16;4988966;28;20211;-69
2023/02/25 02:38:38;;;;;;;3.33;1.13;;;;;;;3.78;100.00;99995.03;4990181;28;20278;-70
2023/02/25 02:41:32;;;;;;;3.27;1.20;;;;;;;3.78;100.00;100012.75;4973295;28;20664;-70
2023/02/25 02:44:15;;;;;;;2.70;0.70;;;;;;;3.78;100.00;100005.16;4974385;28;20187;-70
2023/02/25 02:46:47;;;;;;;1.30;0.70;;;;;;;3.77;100.00;100011.06;5006988;28;20206;-68
2023/02/25 02:49:23;;;;;;;2.40;0.83;;;;;;;3.77;100.00;100011.88;4993712;28;20191;-68
2023/02/25 02:51:57;;;;;;;1.73;0.83;;;;;;;3.78;100.00;100010.22;4992145;28;20258;-70
2023/02/25 02:54:28;;;;;;;1.57;0.90;;;;;;;3.78;100.00;100023.72;4982583;28;20192;-69
2023/02/25 02:56:57;;;;;;;2.33;1.23;;;;;;;3.78;100.00;100021.19;4989576;28;20673;-70
2023/02/25 02:59:31;;;;;;;2.33;1.00;;;;;;;3.78;100.00;100022.88;4995961;28;20207;-70
2023/02/25 03:02:05;;;;;;;1.43;0.97;;;;;;;3.77;100.00;100027.06;4988803;28;20219;-69
2023/02/25 03:04:36;;;;;;;3.50;1.03;;;;;;;3.78;100.00;100033.84;4987516;28;20191;-69
2023/02/25 03:07:06;;;;;;;2.47;1.10;;;;;;;3.79;100.00;100030.53;4990557;28;20203;-70
2023/02/25 03:09:41;;;;;;;1.57;1.10;;;;;;;3.80;100.00;100039.84;4988632;28;20203;-69
2023/02/25 03:12:06;;;;;;;3.43;1.10;;;;;;;3.78;100.00;100045.66;4989381;28;20219;-69
2023/02/25 03:14:34;;;;;;;1.83;1.03;;;;;;;3.77;100.00;100044.78;4988067;28;20261;-69
2023/02/25 03:17:09;;;;;;;1.93;1.20;;;;;;;3.76;100.00;100045.63;4994219;28;20200;-68
2023/02/25 03:19:40;;;;;;;3.13;1.00;;;;;;;3.74;100.00;100049.78;5005349;28;20196;-69
2023/02/25 03:22:22;;;;;;;2.20;1.10;;;;;;;3.73;100.00;100060.69;4993212;28;20215;-69
2023/02/25 03:25:03;;;;;;;3.17;1.40;;;;;;;3.70;100.00;100057.19;4988128;28;20198;-67
2023/02/25 03:27:43;;;;;;;3.13;1.27;;;;;;;3.67;100.00;100064.69;4989077;28;20219;-69
2023/02/25 03:30:22;;;;;;;5.20;1.20;;;;;;;3.65;100.00;100072.25;4989352;28;20291;-69
2023/02/25 03:32:56;;;;;;;1.57;1.40;;;;;;;3.62;100.00;100082.25;4989478;28;20239;-70
2023/02/25 03:35:25;;;;;;;6.03;1.40;;;;;;;3.63;100.00;100081.44;4991829;28;20203;-70
2023/02/25 03:37:58;;;;;;;3.27;1.57;;;;;;;3.62;100.00;100083.91;4994192;28;20286;-69
2023/02/25 03:40:26;;;;;;;4.27;1.93;;;;;;;3.58;100.00;100082.13;4989256;28;20580;-68
2023/02/25 03:42:58;;;;;;;2.97;0.90;;;;;;;3.55;100.00;100095.50;4988861;28;20211;-69
2023/02/25 03:45:23;;;;;;;3.77;1.73;;;;;;;3.53;100.00;100104.72;4988087;28;20187;-68
2023/02/25 03:47:50;;;;;;;2.90;1.40;;;;;;;3.53;100.00;100098.78;4992289;28;20211;-68
2023/02/25 03:50:24;;;;;;;5.47;1.10;;;;;;;3.51;100.00;100110.53;4968326;28;20196;-70
2023/02/25 03:52:55;;;;;;;2.10;1.00;;;;;;;3.48;100.00;100108.75;4990991;28;20807;-70
2023/02/25 03:55:46;;;;;;;2.33;1.10;;;;;;;3.48;100.00;100113.81;4984143;28;20203;-69
2023/02/25 03:58:12;;;;;;;1.90;1.20;;;;;;;3.47;100.00;100119.69;4992545;28;20257;-70
2023/02/25 04:00:41;;;;;;;4.17;1.30;;;;;;;3.44;100.00;100122.09;4992778;28;20199;-68
2023/02/25 04:03:06;;;;;;;3.90;1.30;;;;;;;3.46;100.00;100129.75;4990482;28;20234;-70
2023/02/25 04:05:32;;;;;;;3.13;1.27;;;;;;;3.48;100.00;100138.25;4990024;28;20207;-70
2023/02/25 04:07:58;;;;;;;2.20;1.10;;;;;;;3.46;100.00;100135.69;4990908;28;20230;-69
2023/02/25 04:10:27;;;;;;;4.23;1.33;;;;;;;3.47;100.00;100137.41;4985734;28;20255;-69
2023/02/25 04:12:53;;;;;;;3.97;1.30;;;;;;;3.47;100.00;100134.88;4988508;28;20316;-68
2023/02/25 04:15:19;;;;;;;3.43;1.33;;;;;;;3.41;100.00;100133.78;4988047;28;20278;-69
2023/02/25 04:17:45;;;;;;;4.10;1.53;;;;;;;3.41;100.00;100146.44;4975816;28;20211;-68
2023/02/25 04:20:14;;;;;;;3.97;1.60;;;;;;;3.41;100.00;100141.38;4985518;28;20563;-70
2023/02/25 04:22:40;;;;;;;2.37;1.40;;;;;;;3.39;100.00;100146.38;4971205;28;20276;-69
2023/02/25 04:25:06;;;;;;;1.87;1.30;;;;;;;3.37;100.00;100152.19;4988634;28;20683;-70
2023/02/25 04:27:32;;;;;;;3.50;1.20;;;;;;;3.39;100.00;100158.16;4997578;28;20596;-70
2023/02/25 04:29:57;;;;;;;2.73;1.37;;;;;;;3.39;100.00;100158.16;4987415;28;20298;-70
2023/02/25 04:32:23;;;;;;;4.83;1.70;;;;;;;3.39;100.00;100163.22;4989765;28;20237;-68
2023/02/25 04:34:49;;;;;;;2.13;1.23;;;;;;;3.38;100.00;100167.44;4989660;28;20588;-69
2023/02/25 04:37:14;;;;;;;1.87;1.40;;;;;;;3.39;100.00;100168.28;4989572;28;20604;-69
2023/02/25 04:39:40;;;;;;;2.90;1.17;;;;;;;3.36;100.00;100169.03;4991933;28;20214;-70
2023/02/25 04:42:06;;;;;;;3.17;1.30;;;;;;;3.32;100.00;100172.25;4987030;28;20226;-68
2023/02/25 04:44:31;;;;;;;3.37;1.10;;;;;;;3.24;100.00;100166.06;4985130;28;20207;-70
2023/02/25 04:46:57;;;;;;;2.17;1.20;;;;;;;3.20;100.00;100166.75;4987821;28;20191;-68
2023/02/25 04:49:22;;;;;;;2.13;1.10;;;;;;;3.18;100.00;100165.81;4991816;28;20627;-69
2023/02/25 04:51:50;;;;;;;1.57;1.00;;;;;;;3.16;100.00;100175.03;4990261;28;20261;-69
2023/02/25 04:54:17;;;;;;;2.43;1.20;;;;;;;3.14;100.00;100174.13;4992196;28;20310;-69
2023/02/25 04:56:43;;;;;;;2.33;1.17;;;;;;;3.12;100.00;100164.75;4987278;28;20190;-68
2023/02/25 04:59:10;;;;;;;2.67;1.40;;;;;;;3.09;100.00;100169.69;4992677;28;20289;-69
2023/02/25 05:01:37;;;;;;;3.30;1.20;;;;;;;3.05;100.00;100173.78;4988905;28;20255;-67
2023/02/25 05:04:03;;;;;;;1.57;1.23;;;;;;;3.00;100.00;100176.91;4991345;28;20303;-69
2023/02/25 05:06:29;;;;;;;3.93;1.47;;;;;;;3.02;100.00;100170.25;4990290;28;20196;-70
2023/02/25 05:08:58;;;;;;;3.90;0.97;;;;;;;3.00;100.00;100172.72;4998575;28;20548;-69
2023/02/25 05:11:27;;;;;;;2.37;1.10;;;;;;;2.99;100.00;100177.72;4991207;28;20222;-68
2023/02/25 05:13:54;;;;;;;2.47;1.03;;;;;;;2.95;100.00;100176.72;4993401;28;20223;-69
2023/02/25 05:16:20;;;;;;;5.10;1.40;;;;;;;2.92;100.00;100174.09;4989047;28;20200;-68
2023/02/25 05:18:46;;;;;;;2.03;1.07;;;;;;;2.91;100.00;100182.50;4999610;28;20225;-68
2023/02/25 05:21:15;;;;;;;3.67;1.10;;;;;;;2.91;100.00;100185.03;4990703;28;20208;-69
2023/02/25 05:23:41;;;;;;;2.33;1.23;;;;;;;2.91;100.00;100177.44;4999295;28;20766;-69
2023/02/25 05:26:08;;;;;;;5.87;1.07;;;;;;;2.90;100.00;100179.91;4990495;28;20192;-69
2023/02/25 05:28:34;;;;;;;2.93;1.10;;;;;;;2.89;100.00;100190.81;5001008;28;20688;-70
2023/02/25 05:31:06;;;;;;;2.47;1.23;;;;;;;2.90;100.00;100197.59;4990624;28;20191;-69
2023/02/25 05:33:32;;;;;;;4.60;1.47;;;;;;;2.88;100.00;100187.41;4997533;28;20220;-69
2023/02/25 05:35:58;;;;;;;2.70;1.17;;;;;;;2.90;100.00;100197.59;4990619;28;20820;-69
2023/02/25 05:38:24;;;;;;;3.00;1.10;;;;;;;2.89;100.00;100199.25;4992479;28;20192;-69
2023/02/25 05:40:50;;;;;;;1.70;0.80;;;;;;;2.87;100.00;100197.47;4993892;28;20200;-70
2023/02/25 05:43:16;;;;;;;4.73;1.50;;;;;;;2.89;100.00;100204.31;4989642;28;20704;-69
2023/02/25 05:45:41;;;;;;;2.20;1.10;;;;;;;2.91;100.00;100212.81;4995566;28;20193;-69
2023/02/25 05:48:07;;;;;;;3.70;1.17;;;;;;;2.90;100.00;100210.25;4991217;28;20604;-68
2023/02/25 05:50:39;;;;;;;2.77;1.10;;;;;;;2.92;100.00;100223.78;4995532;28;20704;-69
2023/02/25 05:53:05;;;;;;;1.83;1.03;;;;;;;2.92;100.00;100212.03;4990194;28;20220;-68
2023/02/25 05:55:31;;;;;;;3.70;1.30;;;;;;;2.92;100.00;100214.53;4994676;28;20202;-68
2023/02/25 05:57:56;;;;;;;3.33;1.10;;;;;;;2.91;100.00;100228.00;4991858;28;20709;-69
2023/02/25 06:00:22;;;;;;;2.33;1.00;;;;;;;2.92;100.00;100227.19;4994196;28;20192;-69
2023/02/25 06:02:47;;;;;;;3.77;1.30;;;;;;;2.93;100.00;100233.97;4991952;28;20215;-68
2023/02/25 06:05:12;;;;;;;2.47;1.07;;;;;;;2.93;100.00;100236.47;4994546;28;20837;-69
2023/02/25 06:07:38;;;;;;;3.13;1.20;;;;;;;2.94;100.00;100237.38;4987287;28;20222;-70
2023/02/25 06:10:04;;;;;;;1.93;1.20;;;;;;;2.95;100.00;100252.56;4989845;28;20226;-66
2023/02/25 06:12:32;;;;;;;3.57;1.10;;;;;;;2.95;100.00;100251.72;4973379;28;20591;-67
2023/02/25 06:14:57;;;;;;;4.07;1.20;;;;;;;2.95;100.00;100247.50;4997465;28;20200;-70
2023/02/25 06:17:26;;;;;;;3.47;1.13;;;;;;;2.96;100.00;100258.50;4987742;28;20243;-69
2023/02/25 06:19:52;;;;;;;2.47;1.20;;;;;;;2.96;100.00;100269.47;4995860;28;20252;-69
2023/02/25 06:22:22;;;;;;;3.67;1.03;;;;;;;2.94;100.00;100278.66;4988442;28;20216;-69
2023/02/25 06:24:47;;;;;;;1.47;1.10;;;;;;;2.91;100.00;100282.72;4998846;28;20562;-70
2023/02/25 06:27:14;;;;;;;3.87;1.30;;;;;;;2.87;100.00;100283.41;4988390;28;20200;-69
2023/02/25 06:29:40;;;;;;;4.53;1.30;;;;;;;2.84;100.00;100299.31;5000574;28;20202;-70
2023/02/25 06:32:12;;;;;;;2.17;1.00;;;;;;;2.83;100.00;100302.66;4989458;28;20234;-69
2023/02/25 06:34:38;;;;;;;3.60;1.10;;;;;;;2.81;100.00;100309.28;4986008;28;20231;-69
2023/02/25 06:37:05;;;;;;;2.60;1.20;;;;;;;2.79;100.00;100303.31;4985647;28;20354;-70
2023/02/25 06:39:30;;;;;;;2.87;1.17;;;;;;;2.79;100.00;100310.03;4982083;28;20300;-69
2023/02/25 06:41:56;;;;;;;4.73;1.17;;;;;;;2.80;100.00;100316.84;4987946;28;20633;-69
2023/02/25 06:44:21;;;;;;;2.40;1.40;;;;;;;2.79;100.00;100317.59;4982577;28;20196;-69
2023/02/25 06:46:50;;;;;;;3.17;1.00;;;;;;;2.78;100.00;100320.94;4988844;28;20328;-70
2023/02/25 06:49:16;;;;;;;2.83;1.10;;;;;;;2.82;100.00;100317.75;4968365;28;20287;-69
2023/02/25 06:51:41;;;;;;;2.67;1.17;;;;;;;2.84;100.00;100326.25;4988760;28;20307;-69
2023/02/25 06:54:07;;;;;;;1.50;0.90;;;;;;;2.86;100.00;100330.59;4967939;28;20776;-70
2023/02/25 06:56:32;;;;;;;4.30;1.23;;;;;;;2.88;100.00;100334.03;4988184;28;20198;-70
2023/02/25 06:58:58;;;;;;;2.83;1.27;;;;;;;2.87;100.00;100334.84;4986378;28;20214;-68
2023/02/25 07:01:24;;;;;;;3.27;1.00;;;;;;;2.87;100.00;100342.41;4988153;28;20224;-68
2023/02/25 07:03:51;;;;;;;2.20;1.13;;;;;;;2.88;100.00;100344.13;4985488;28;20210;-69
2023/02/25 07:06:17;;;;;;;3.33;1.30;;;;;;;2.90;100.00;100357.69;4969599;28;20242;-69
2023/02/25 07:08:44;;;;;;;3.03;1.07;;;;;;;2.86;100.00;100370.16;4986256;28;20222;-69
2023/02/25 07:11:16;;;;;;;2.97;1.20;;;;;;;2.85;100.00;100365.91;4985329;28;20211;-70
2023/02/25 07:13:43;;;;;;;3.10;0.90;;;;;;;2.84;100.00;100385.25;4988124;28;20649;-70
2023/02/25 07:16:10;;;;;;;2.57;0.70;;;;;;;2.82;100.00;100369.16;4983653;28;20195;-69
2023/02/25 07:18:35;;;;;;;3.43;1.63;;;;;;;2.73;100.00;100378.00;4984751;28;20195;-69
2023/02/25 07:21:01;;;;;;;2.47;1.53;;;;;;;2.70;100.00;100382.94;4983087;28;20329;-68
2023/02/25 07:23:26;;;;;;;2.00;1.30;;;;;;;2.74;100.00;100393.25;4985847;28;20188;-68
2023/02/25 07:25:52;;;;;;;2.00;0.70;;;;;;;2.75;100.00;100389.91;4982324;28;20204;-70
2023/02/25 07:28:17;;;;;;;3.13;1.03;;;;;;;2.75;100.00;100392.44;4981180;28;20195;-68
2023/02/25 07:30:42;;;;;;;0.70;0.60;;;;;;;2.79;100.00;100401.00;4986564;28;20192;-69
2023/02/25 07:33:08;;;;;;;2.80;0.70;;;;;;;2.82;100.00;100403.69;4986037;28;20295;-70
2023/02/25 07:35:33;;;;;;;2.60;0.60;;;;;;;2.84;100.00;100404.59;4982202;28;20287;-69
2023/02/25 07:37:59;;;;;;;1.30;0.70;;;;;;;2.93;100.00;100413.44;4985974;28;20234;-68
2023/02/25 07:40:25;;;;;;;2.40;0.60;;;;;;;2.97;100.00;100411.91;4982943;28;20649;-69
2023/02/25 07:42:50;;;;;;;5.57;1.23;;;;;;;3.07;100.00;100404.78;4986340;28;20258;-69
2023/02/25 07:45:19;;;;;;;2.10;0.70;;;;;;;3.15;100.00;100417.72;4980095;28;20276;-68
2023/02/25 07:47:45;;;;;;;2.90;1.03;;;;;;;3.27;100.00;100420.78;4984109;28;20327;-69
2023/02/25 07:50:11;;;;;;;5.03;0.60;;;;;;;3.26;100.00;100416.53;4984145;28;20287;-67
2023/02/25 07:52:37;;;;;;;3.20;0.80;;;;;;;3.40;100.00;100431.44;4983578;28;20231;-68
2023/02/25 07:55:04;;;;;;;1.50;0.70;;;;;;;3.43;100.00;100435.75;4986026;28;20204;-69
2023/02/25 07:57:30;;;;;;;4.53;0.80;;;;;;;3.50;100.00;100437.75;4983803;28;20196;-70
2023/02/25 07:59:55;;;;;;;1.33;0.67;;;;;;;3.59;100.00;100445.72;4983725;28;20233;-69
2023/02/25 08:02:21;;;;;;;3.23;0.80;;;;;;;3.55;100.00;100442.19;4985449;28;20231;-69
2023/02/25 08:04:46;;;;;;;2.00;1.50;;;;;;;3.55;100.00;100456.53;4987392;28;20672;-69
2023/02/25 08:07:12;;;;;;;2.80;0.80;;;;;;;3.56;100.00;100458.25;4981336;28;20287;-68
2023/02/25 08:09:38;;;;;;;2.57;0.60;;;;;;;3.68;100.00;100457.06;5000421;28;20208;-69
2023/02/25 08:12:04;;;;;;;1.43;0.60;;;;;;;3.65;100.00;100468.75;4963965;28;20220;-72
2023/02/25 08:14:29;;;;;;;1.90;0.90;;;;;;;3.43;100.00;100466.13;4986870;28;20202;-70
2023/02/25 08:16:56;;;;;;;1.70;0.50;;;;;;;3.37;100.00;100476.88;4983756;28;20202;-70
2023/02/25 08:19:21;;;;;;;5.60;2.20;;;;;;;3.32;100.00;100480.84;4986266;28;20662;-70
2023/02/25 08:21:46;;;;;;;4.17;1.40;;;;;;;3.33;100.00;100489.31;4980457;28;20247;-68
2023/02/25 08:24:12;;;;;;;38.67;29.23;;;;;;;3.30;100.00;100485.00;4986103;28;20195;-69
2023/02/25 08:26:37;;;;;;;4.97;4.47;;;;;;;3.25;100.00;100496.59;4982941;28;20669;-69
2023/02/25 08:29:03;;;;;;;4.90;1.70;;;;;;;3.24;100.00;100499.94;4985962;28;20192;-69
2023/02/25 08:31:29;;;;;;;3.90;1.80;;;;;;;3.14;100.00;100509.59;4983869;28;20580;-68
2023/02/25 08:33:56;;;;;;;6.00;1.50;;;;;;;2.93;100.00;100519.63;4983174;28;20199;-68
2023/02/25 08:36:26;;;;;;;2.63;1.00;;;;;;;2.53;100.00;100532.94;4982017;28;20211;-69
2023/02/25 08:38:53;;;;;;;3.60;1.10;;;;;;;2.44;100.00;100522.41;4968166;28;20187;-69
2023/02/25 08:41:22;;;;;;;2.87;1.00;;;;;;;2.35;100.00;100532.09;4984950;28;20208;-71
2023/02/25 08:43:50;;;;;;;3.07;1.40;;;;;;;2.24;100.00;100525.66;4985057;28;20190;-69
2023/02/25 08:46:17;;;;;;;2.77;1.10;;;;;;;2.51;100.00;100535.41;4976574;28;20198;-68
2023/02/25 08:48:42;;;;;;;2.77;1.30;;;;;;;2.66;100.00;100540.28;4984637;28;20200;-71
2023/02/25 08:51:09;;;;;;;7.03;1.50;;;;;;;2.76;100.00;100525.59;4982987;28;20206;-70
2023/02/25 08:53:37;;;;;;;3.23;1.63;;;;;;;3.10;100.00;100527.94;4982655;28;20287;-70
2023/02/25 08:56:04;;;;;;;1.33;1.03;;;;;;;3.30;100.00;100519.53;4986187;28;20274;-70
2023/02/25 08:58:30;;;;;;;3.43;1.03;;;;;;;3.60;100.00;100528.44;4982775;28;20213;-68
2023/02/25 09:00:56;;;;;;;2.13;1.10;;;;;;;3.72;100.00;100524.72;4983134;28;20199;-67
2023/02/25 09:03:21;;;;;;;4.13;0.93;;;;;;;3.91;100.00;100528.88;4981862;28;20617;-71
2023/02/25 09:05:51;;;;;;;1.03;0.70;;;;;;;4.25;100.00;100522.69;4983471;28;20256;-70
2023/02/25 09:08:17;;;;;;;2.77;0.67;;;;;;;4.43;100.00;100530.13;4982338;28;20211;-71
2023/02/25 09:10:42;;;;;;;2.83;1.50;;;;;;;4.98;100.00;100532.22;4977730;28;20203;-68
2023/02/25 09:13:07;;;;;;;2.37;1.20;;;;;;;6.20;100.00;100541.53;4982370;28;20275;-71
2023/02/25 09:15:33;;;;;;;1.47;0.57;;;;;;;4.97;100.00;100555.00;4984141;28;20200;-70
2023/02/25 09:17:58;;;;;;;2.70;0.70;;;;;;;4.31;100.00;100572.72;4979137;28;20195;-68
2023/02/25 09:20:25;;;;;;;2.57;0.87;;;;;;;4.06;100.00;100572.56;4984827;28;20555;-70
2023/02/25 09:22:50;;;;;;;3.07;1.20;;;;;;;3.82;100.00;100579.16;4980268;28;20283;-68
2023/02/25 09:25:16;;;;;;;1.43;1.10;;;;;;;3.58;100.00;100591.63;4985613;28;20643;-69
2023/02/25 09:27:41;;;;;;;2.50;1.10;;;;;;;3.45;100.00;100609.63;4981411;28;20222;-70
2023/02/25 09:30:08;;;;;;;4.93;1.37;;;;;;;3.37;100.00;100618.56;4985270;28;20184;-69
2023/02/25 09:32:33;;;;;;;2.63;1.00;;;;;;;3.25;100.00;100623.06;4980621;28;20219;-68
2023/02/25 09:35:05;;;;;;;4.53;1.30;;;;;;;3.15;100.00;100622.59;4985012;28;20199;-71
2023/02/25 09:37:31;;;;;;;2.87;1.17;;;;;;;3.18;100.00;100630.31;4980966;28;20200;-68
2023/02/25 09:39:56;;;;;;;3.07;1.10;;;;;;;3.37;100.00;100623.63;4983042;28;20265;-70
2023/02/25 09:42:26;;;;;;;4.80;1.20;;;;;;;3.53;100.00;100640.31;4980137;28;20227;-68
2023/02/25 09:44:59;;;;;;;3.10;1.00;;;;;;;3.46;100.00;100635.78;4983160;28;20654;-69
2023/02/25 09:47:36;;;;;;;3.57;0.90;;;;;;;3.56;100.00;100636.28;4979046;28;20224;-70
2023/02/25 09:50:07;;;;;;;3.07;1.23;;;;;;;3.56;100.00;100645.53;4985678;28;20560;-69
2023/02/25 09:52:38;;;;;;;2.83;1.13;;;;;;;3.38;100.00;100647.25;4983924;28;20258;-69
2023/02/25 09:55:20;;;;;;;3.57;1.27;;;;;;;3.22;100.00;100654.97;4984768;28;20200;-69
2023/02/25 09:58:01;;;;;;;3.63;1.23;;;;;;;3.27;100.00;100648.44;4985725;28;20192;-70
2023/02/25 10:00:34;;;;;;;6.33;1.40;;;;;;;4.50;100.00;100644.47;4984500;28;20200;-69
2023/02/25 10:03:12;;;;;;;2.57;1.00;;;;;;;4.94;100.00;100646.22;4982485;28;20226;-69
2023/02/25 10:06:13;;;;;;;5.73;2.17;;;;;;;4.31;100.00;100659.75;4982459;28;20203;-69
2023/02/25 10:08:52;;;;;;;5.80;1.43;;;;;;;4.16;100.00;100660.78;4979681;28;20210;-69
2023/02/25 10:11:47;;;;;;;6.10;1.40;;;;;;;4.69;100.00;100659.59;4986215;28;20215;-68
2023/02/25 10:14:21;;;;;;;6.73;1.60;;;;;;;5.23;100.00;100663.38;4984479;28;20303;-69
2023/02/25 10:16:57;;;;;;;4.80;1.20;;;;;;;5.46;100.00;100670.19;4987069;28;20245;-70
2023/02/25 10:19:52;;;;;;;3.10;1.20;;;;;;;5.35;100.00;100679.09;4984057;28;20207;-69
2023/02/25 10:22:31;;;;;;;3.67;1.37;;;;;;;5.25;100.00;100682.09;4987158;28;20219;-66
2023/02/25 10:25:02;;;;;;;3.77;1.13;;;;;;;5.12;100.00;100690.91;4981964;28;20286;-69
2023/02/25 10:27:36;;;;;;;3.17;1.37;;;;;;;5.70;100.00;100689.72;4983047;28;20285;-70
2023/02/25 10:30:17;;;;;;;4.40;0.93;;;;;;;6.48;100.00;100684.84;4980590;28;20260;-69
2023/02/25 10:32:44;;;;;;;5.23;1.10;;;;;;;6.49;100.00;100693.34;4983422;28;20285;-67
2023/02/25 10:35:25;;;;;;;9.40;1.33;;;;;;;8.53;100.00;100694.31;4981434;28;20195;-70
2023/02/25 10:37:51;;;;;;;5.10;1.83;;;;;;;11.64;99.17;100683.22;4981379;28;20196;-69
2023/02/25 10:40:21;;;;;;;3.00;0.90;;;;;;;15.00;68.18;100672.31;4984120;28;20197;-70
2023/02/25 10:42:53;;;;;;;5.47;1.60;;;;;;;14.24;60.64;100680.03;4984025;28;20303;-69
2023/02/25 10:45:23;;;;;;;7.53;1.50;;;;;;;11.47;82.53;100685.53;4979986;28;20637;-69
2023/02/25 10:47:57;;;;;;;2.63;1.40;;;;;;;16.78;47.97;100677.53;4984752;28;20207;-70
2023/02/25 10:50:25;;;;;;;2.73;1.00;;;;;;;13.49;49.28;100706.31;4982468;28;20196;-70
2023/02/25 10:52:54;;;;;;;2.13;0.90;;;;;;;8.56;75.39;100705.44;4986649;28;20211;-69
2023/02/25 10:55:53;;;;;;;4.97;1.27;;;;;;;7.29;93.76;100729.84;4980427;28;20198;-70
2023/02/25 10:58:24;;;;;;;4.73;1.30;;;;;;;6.42;100.00;100735.53;4980815;28;20197;-69
2023/02/25 11:00:58;;;;;;;6.37;2.50;;;;;;;6.05;100.00;100747.78;4969225;28;20250;-69
2023/02/25 11:03:25;;;;;;;3.70;1.27;;;;;;;5.66;100.00;100741.19;4980006;28;20216;-69
2023/02/25 11:05:50;;;;;;;5.63;1.60;;;;;;;5.55;100.00;100747.56;4982572;28;20191;-68
2023/02/25 11:08:30;;;;;;;4.43;1.40;;;;;;;5.31;100.00;100758.47;4981808;28;20577;-68
2023/02/25 11:11:14;;;;;;;4.57;1.13;;;;;;;5.29;100.00;100758.38;4984066;28;20806;-69
2023/02/25 11:13:40;;;;;;;7.10;1.20;;;;;;;4.95;100.00;100757.88;4981137;28;20206;-68
2023/02/25 11:16:09;;;;;;;5.60;1.27;;;;;;;4.95;100.00;100775.66;4983242;28;20223;-70
2023/02/25 11:18:37;;;;;;;4.37;1.03;;;;;;;4.90;100.00;100776.25;4978848;28;20196;-67
2023/02/25 11:21:09;;;;;;;3.87;1.40;;;;;;;4.78;100.00;100779.16;4983148;28;20203;-68
2023/02/25 11:23:45;;;;;;;2.23;1.00;;;;;;;4.67;100.00;100784.59;4979819;28;20270;-70
2023/02/25 11:26:16;;;;;;;5.67;1.37;;;;;;;4.50;100.00;100791.50;4984208;28;20258;-70
2023/02/25 11:28:48;;;;;;;5.33;1.53;;;;;;;4.56;100.00;100783.28;4982165;28;20199;-69
2023/02/25 11:31:20;;;;;;;4.40;1.37;;;;;;;4.90;100.00;100781.31;4983230;28;20269;-69
2023/02/25 11:33:56;;;;;;;4.37;1.00;;;;;;;6.03;100.00;100786.66;4987476;28;20278;-72
2023/02/25 11:36:23;;;;;;;7.23;1.30;;;;;;;7.81;100.00;100776.44;4982165;28;20199;-68